Ballard, Washington
Current Conditions -  °F | °C
As of 7:53 PM on Saturday 20 Dec 2014 (Local Time) from KBFI Reporting Station
Overcast Overcast  
Wind Chill: 58°   Ceiling: 1800
Heat Index: 58°   Visibility: 10mi
Dew Point: 52°   Wind: 14mph
Humidity: 81%   Direction: 170°S
Pressure: 29.46"   Gusts: 28mph
Location:  47.6705°N, 122.381°W
Report Text: KBFI 210353Z 17012G24KT 10SM BKN018 OVC023 14/11 A2946 RMK AO2 PK WND 18026/0329 RAE01 SLP975 P0000 T01440111
Loading
Personal Weather Stations






























Interactive Weather Map New forecast layout! Learn more

10-Day Weather Forecast

Advertisements
Track Severe Weather on mobile